»·PEaware :: N806AT KTUS-KSNA

N806AT :: KTUS-KSNA

FLIGHT INFORMATION

Flight Status: Arrived
Operator: Privately registered:
United States
More flights under this callsign
Pilot: Dean S. (16265)
Aircraft: CESSNA 401-UTILINER 402-BUSNESSLINER
(C402)
More flights by this aircraft type
Origin: KTUS Tucson Intl
United States
Destination: KSNA John Wayne-Orange Co
United States
More flights between these airports :: More routes between these airports
Route: TFD VICKO NIKKL KAYOH TUSTI
File this flight plan on PilotEdge
Remarks:
Altitude:
(Current/Filed)
6,500ft
Speed:
(Current/Filed)
140kts
Departed: 06-Sep-17 06:20 PM
Arrived: 06-Sep-17 08:25 PM
Distance/Time
Traveled:
361nm/2:05
Distance/Time
To Go:
Arrived

Flight Plot

Page will automatically refresh every two minutes.

Flight plan parsing failed; only flown route is shown


Map Options




Map Legend


Flown Route
Filed Route
Departure Airport
Arrival Airport
Navaid (VOR, NDB)
Fix

Horizontal Profiles

Position Reports

Time Latitude Longitude Heading Altitude Ground
Speed
06-Sep-17 18:13 32.121819 -110.940494 222 2646ft 0kts
06-Sep-17 18:14 32.121750 -110.940714 328 2646ft 0kts
06-Sep-17 18:15 32.121752 -110.940715 328 2646ft 0kts
06-Sep-17 18:16 32.122192 -110.940917 289 2646ft 6kts
06-Sep-17 18:17 32.121902 -110.941564 215 2646ft 7kts
06-Sep-17 18:18 32.120489 -110.942876 311 2646ft 10kts
06-Sep-17 18:19 32.122030 -110.944792 315 2646ft 11kts
06-Sep-17 18:20 32.123693 -110.947134 262 2646ft 3kts
06-Sep-17 18:21 32.123674 -110.947189 233 2646ft 0kts
06-Sep-17 18:22 32.123673 -110.947190 233 2646ft 0kts
06-Sep-17 18:23 32.123671 -110.947195 233 2646ft 0kts
06-Sep-17 18:24 32.122187 -110.946504 134 2646ft 46kts
06-Sep-17 18:25 32.101074 -110.922215 137 3843ft 114kts
06-Sep-17 18:26 32.104415 -110.887976 27 5458ft 141kts
06-Sep-17 18:27 32.152763 -110.899551 322 5751ft 195kts
06-Sep-17 18:28 32.196066 -110.941359 320 6266ft 225kts
06-Sep-17 18:29 32.249435 -110.991865 321 5033ft 250kts
06-Sep-17 18:30 32.298695 -111.035856 323 6636ft 159kts
06-Sep-17 18:31 32.337280 -111.066213 326 6230ft 236kts
06-Sep-17 18:32 32.393743 -111.109539 318 4775ft 202kts
06-Sep-17 18:33 32.414613 -111.169707 279 5461ft 202kts
06-Sep-17 18:34 32.426313 -111.234249 283 6138ft 200kts
06-Sep-17 18:35 32.439111 -111.299720 281 6498ft 213kts
06-Sep-17 18:36 32.462618 -111.366173 298 6500ft 223kts
06-Sep-17 18:37 32.493605 -111.430304 300 6500ft 225kts
06-Sep-17 18:38 32.525834 -111.493268 301 6499ft 222kts
06-Sep-17 18:39 32.561704 -111.551577 310 6499ft 212kts
06-Sep-17 18:40 32.599137 -111.604319 310 6499ft 207kts
06-Sep-17 18:41 32.636059 -111.656249 310 6499ft 205kts
06-Sep-17 18:42 32.672827 -111.707939 310 6499ft 205kts
06-Sep-17 18:43 32.709688 -111.759741 310 6500ft 205kts
06-Sep-17 18:44 32.746456 -111.811389 310 6500ft 205kts
06-Sep-17 18:45 32.783229 -111.863027 310 6500ft 205kts
06-Sep-17 18:46 32.820138 -111.914834 310 6500ft 205kts
06-Sep-17 18:47 32.852829 -111.969879 297 6500ft 204kts
06-Sep-17 18:48 32.879117 -112.030224 297 6500ft 205kts
06-Sep-17 18:49 32.905233 -112.090369 297 6500ft 205kts
06-Sep-17 18:50 32.931404 -112.150598 297 6500ft 205kts
06-Sep-17 18:51 32.957664 -112.210993 297 6500ft 205kts
06-Sep-17 18:52 32.983845 -112.271166 297 6500ft 205kts
06-Sep-17 18:53 33.010075 -112.331411 297 6500ft 205kts
06-Sep-17 18:54 33.036407 -112.391850 297 6500ft 205kts
06-Sep-17 18:55 33.062659 -112.452063 297 6500ft 205kts
06-Sep-17 18:56 33.088954 -112.512337 297 6500ft 205kts
06-Sep-17 18:57 33.115254 -112.572581 297 6500ft 205kts
06-Sep-17 18:58 33.141678 -112.633074 297 6500ft 206kts
06-Sep-17 18:59 33.169065 -112.696422 297 6500ft 220kts
06-Sep-17 19:00 33.197452 -112.762143 297 6500ft 223kts
06-Sep-17 19:01 33.225960 -112.828097 297 6500ft 224kts
06-Sep-17 19:02 33.254528 -112.894140 297 6500ft 224kts
06-Sep-17 19:03 33.283223 -112.960431 297 6500ft 224kts
06-Sep-17 19:04 33.309462 -113.027764 287 6500ft 224kts
06-Sep-17 19:05 33.326376 -113.099422 285 6500ft 224kts
06-Sep-17 19:06 33.342983 -113.171435 285 6500ft 224kts
06-Sep-17 19:07 33.359564 -113.243243 285 6500ft 224kts
06-Sep-17 19:08 33.376173 -113.315069 285 6500ft 224kts
06-Sep-17 19:09 33.392852 -113.387101 285 6500ft 224kts
06-Sep-17 19:10 33.409511 -113.458943 285 6500ft 224kts
06-Sep-17 19:11 33.426242 -113.530995 285 6500ft 224kts
06-Sep-17 19:12 33.442947 -113.602838 285 6500ft 224kts
06-Sep-17 19:13 33.459674 -113.674674 285 6500ft 224kts
06-Sep-17 19:14 33.476494 -113.746804 285 6500ft 224kts
06-Sep-17 19:15 33.493266 -113.818633 285 6500ft 224kts
06-Sep-17 19:16 33.510083 -113.890553 285 6500ft 224kts
06-Sep-17 19:17 33.526974 -113.962691 285 6500ft 224kts
06-Sep-17 19:18 33.543789 -114.034401 285 6500ft 224kts
06-Sep-17 19:19 33.559313 -114.107239 279 6500ft 224kts
06-Sep-17 19:20 33.569003 -114.181049 278 6500ft 224kts
06-Sep-17 19:21 33.578504 -114.254979 278 6500ft 224kts
06-Sep-17 19:22 33.588059 -114.329156 278 6500ft 224kts
06-Sep-17 19:23 33.595565 -114.403348 273 6500ft 224kts
06-Sep-17 19:24 33.599781 -114.478016 273 6500ft 224kts
06-Sep-17 19:25 33.603974 -114.552929 273 6500ft 224kts
06-Sep-17 19:26 33.608176 -114.627611 273 6500ft 224kts
06-Sep-17 19:27 33.612417 -114.702577 273 6500ft 224kts
06-Sep-17 19:28 33.616662 -114.777215 273 6500ft 224kts
06-Sep-17 19:29 33.620935 -114.851961 273 6500ft 224kts
06-Sep-17 19:30 33.625241 -114.926878 273 6500ft 224kts
06-Sep-17 19:31 33.629558 -115.001612 273 6500ft 224kts
06-Sep-17 19:32 33.633896 -115.076298 273 6500ft 224kts
06-Sep-17 19:33 33.638272 -115.151294 273 6500ft 224kts
06-Sep-17 19:34 33.642652 -115.226000 273 6500ft 224kts
06-Sep-17 19:35 33.647057 -115.300761 273 6500ft 224kts
06-Sep-17 19:36 33.651494 -115.375728 273 6500ft 224kts
06-Sep-17 19:37 33.655941 -115.450494 273 6500ft 224kts
06-Sep-17 19:38 33.660423 -115.525492 273 6500ft 225kts
06-Sep-17 19:39 33.664913 -115.600279 273 6500ft 225kts
06-Sep-17 19:40 33.669426 -115.675081 273 6500ft 225kts
06-Sep-17 19:41 33.673974 -115.750122 273 6500ft 225kts
06-Sep-17 19:42 33.676924 -115.825021 271 6500ft 225kts
06-Sep-17 19:43 33.678252 -115.899945 271 6499ft 224kts
06-Sep-17 19:44 33.679601 -115.975133 271 6499ft 223kts
06-Sep-17 19:45 33.681143 -116.048423 271 6500ft 219kts
06-Sep-17 19:46 33.682547 -116.122501 271 6500ft 223kts
06-Sep-17 19:47 33.689252 -116.197028 291 6374ft 231kts
06-Sep-17 19:48 33.722559 -116.259879 306 6814ft 222kts
06-Sep-17 19:49 33.758334 -116.321531 304 7062ft 223kts
06-Sep-17 19:50 33.794894 -116.382321 305 7299ft 225kts
06-Sep-17 19:51 33.849578 -116.414152 13 5715ft 268kts
06-Sep-17 19:52 33.909111 -116.403754 345 7031ft 234kts
06-Sep-17 19:53 33.940306 -116.468886 259 6388ft 235kts
06-Sep-17 19:54 33.921740 -116.544796 252 6499ft 238kts
06-Sep-17 19:55 33.903727 -116.617586 254 6520ft 238kts
06-Sep-17 19:56 33.887158 -116.695063 257 6557ft 238kts
06-Sep-17 19:57 33.868779 -116.771487 236 6357ft 245kts
06-Sep-17 19:58 33.822506 -116.830098 224 6475ft 233kts
06-Sep-17 19:59 33.776080 -116.886390 225 6471ft 238kts
06-Sep-17 20:00 33.732196 -116.945549 237 6512ft 240kts
06-Sep-17 20:01 33.704331 -117.018311 248 6584ft 236kts
06-Sep-17 20:02 33.690873 -117.096243 254 6477ft 240kts
06-Sep-17 20:03 33.669516 -117.171265 252 6209ft 237kts
06-Sep-17 20:04 33.661958 -117.251143 283 4643ft 244kts
06-Sep-17 20:05 33.695639 -117.312095 311 4910ft 192kts
06-Sep-17 20:06 33.721221 -117.360030 290 5562ft 157kts
06-Sep-17 20:07 33.738976 -117.404864 304 6223ft 143kts
06-Sep-17 20:08 33.765592 -117.442815 313 6504ft 160kts
06-Sep-17 20:09 33.799570 -117.481962 317 6501ft 175kts
06-Sep-17 20:10 33.831323 -117.527790 306 6500ft 181kts
06-Sep-17 20:11 33.861572 -117.576020 305 6496ft 173kts
06-Sep-17 20:12 33.869579 -117.627797 272 6297ft 156kts
06-Sep-17 20:13 33.874634 -117.680298 280 5699ft 159kts
06-Sep-17 20:14 33.885404 -117.732181 281 5100ft 159kts
06-Sep-17 20:15 33.893701 -117.785084 281 4535ft 160kts
06-Sep-17 20:16 33.883839 -117.829975 212 3818ft 179kts
06-Sep-17 20:17 33.841828 -117.831376 155 3002ft 130kts
06-Sep-17 20:18 33.816162 -117.812638 144 2612ft 100kts
06-Sep-17 20:19 33.795063 -117.792614 185 2512ft 119kts
06-Sep-17 20:20 33.765916 -117.811245 208 2243ft 127kts
06-Sep-17 20:21 33.737390 -117.829801 207 1065ft 97kts
06-Sep-17 20:22 33.718384 -117.840883 208 939ft 77kts
06-Sep-17 20:23 33.700051 -117.847170 162 1018ft 74kts
06-Sep-17 20:24 33.676873 -117.836531 140 1439ft 98kts
06-Sep-17 20:25 33.670317 -117.806158 40 1819ft 120kts
06-Sep-17 20:26 33.704465 -117.803366 341 1278ft 121kts
06-Sep-17 20:27 33.719430 -117.833263 242 868ft 120kts
06-Sep-17 20:28 33.695419 -117.857582 203 534ft 117kts
06-Sep-17 20:29 33.676021 -117.868656 221 59ft 8kts
06-Sep-17 20:30 33.675588 -117.870452 237 59ft 14kts
06-Sep-17 20:31 33.675041 -117.871836 203 59ft 0kts
06-Sep-17 20:32 33.675041 -117.871836 203 59ft 0kts
06-Sep-17 20:33 33.675041 -117.871836 203 59ft 0kts
06-Sep-17 20:34 33.675041 -117.871836 203 59ft 0kts
06-Sep-17 20:35 33.675041 -117.871836 203 59ft 0kts
06-Sep-17 20:36 33.675041 -117.871836 203 59ft 0kts
06-Sep-17 20:37 33.675041 -117.871836 203 59ft 0kts
06-Sep-17 20:38 33.675041 -117.871836 203 59ft 0kts
06-Sep-17 20:39 33.675041 -117.871836 203 59ft 0kts
06-Sep-17 20:40 33.675041 -117.871836 203 59ft 0kts
06-Sep-17 20:41 33.675041 -117.871836 203 59ft 0kts
06-Sep-17 20:42 33.675041 -117.871836 203 59ft 0kts
06-Sep-17 20:43 33.675041 -117.871836 203 59ft 0kts
06-Sep-17 20:44 33.675041 -117.871836 203 59ft 0kts

Navigation Log

Ident Type
Flight plan parsing failed, navigation log unavailable